createdAt,value
2023-01-28T00:10:20.406Z,-2.79
2023-01-28T00:12:51.001Z,-2.81
2023-01-28T00:15:19.250Z,-2.79
2023-01-28T00:17:49.357Z,-2.76
2023-01-28T00:20:17.427Z,-2.73
2023-01-28T00:22:51.728Z,-2.70
2023-01-28T00:25:20.067Z,-2.69
2023-01-28T00:27:49.912Z,-2.70
2023-01-28T00:30:18.926Z,-2.72
2023-01-28T00:32:48.024Z,-2.69
2023-01-28T00:35:16.379Z,-2.67
2023-01-28T00:37:46.633Z,-2.61
2023-01-28T00:40:14.797Z,-2.60
2023-01-28T00:42:42.880Z,-2.62
2023-01-28T00:45:11.015Z,-2.66
2023-01-28T00:47:39.524Z,-2.64
2023-01-28T00:50:07.752Z,-2.61
2023-01-28T00:52:35.872Z,-2.63
2023-01-28T00:55:04.771Z,-2.61
2023-01-28T00:57:33.340Z,-2.63
2023-01-28T01:00:02.053Z,-2.64
2023-01-28T01:02:30.442Z,-2.62
2023-01-28T01:04:58.495Z,-2.60
2023-01-28T01:07:41.627Z,-2.60
2023-01-28T01:10:15.049Z,-2.59
2023-01-28T01:12:43.076Z,-2.60
2023-01-28T01:15:11.405Z,-2.65
2023-01-28T01:17:45.035Z,-2.70
2023-01-28T01:20:15.279Z,-2.71
2023-01-28T01:22:43.394Z,-2.74
2023-01-28T01:25:12.953Z,-2.74
2023-01-28T01:27:43.777Z,-2.70
2023-01-28T01:30:12.704Z,-2.67
2023-01-28T01:32:41.335Z,-2.69
2023-01-28T01:35:10.064Z,-2.70
2023-01-28T01:37:39.795Z,-2.72
2023-01-28T01:40:09.476Z,-2.73
2023-01-28T01:42:38.005Z,-2.74
2023-01-28T01:45:08.054Z,-2.70
2023-01-28T01:47:44.747Z,-2.67
2023-01-28T01:50:15.577Z,-2.67
2023-01-28T01:52:43.752Z,-2.69
2023-01-28T01:55:14.202Z,-2.70
2023-01-28T01:57:42.353Z,-2.73
2023-01-28T02:00:10.984Z,-2.72
2023-01-28T02:02:46.248Z,-2.68
2023-01-28T05:58:05.578Z,-4.49
2023-01-28T06:00:34.256Z,-4.57
2023-01-28T06:03:02.863Z,-4.58
2023-01-28T06:05:31.663Z,-4.55
2023-01-28T06:08:00.449Z,-4.50
2023-01-28T06:10:28.592Z,-4.43
2023-01-28T06:12:57.267Z,-4.36
2023-01-28T06:15:31.476Z,-4.29
2023-01-28T06:18:15.464Z,-4.23
2023-01-28T06:20:43.818Z,-4.20
2023-01-28T06:23:12.368Z,-4.18
2023-01-28T06:25:40.416Z,-4.17
2023-01-28T06:28:13.180Z,-4.20
2023-01-28T06:30:41.742Z,-4.21
2023-01-28T06:33:09.754Z,-4.18
2023-01-28T06:35:40.296Z,-4.18
2023-01-28T06:38:08.597Z,-4.23
2023-01-28T06:40:37.207Z,-4.27
2023-01-28T06:43:05.658Z,-4.29
2023-01-28T06:45:35.613Z,-4.27
2023-01-28T06:48:05.664Z,-4.25
2023-01-28T06:50:36.640Z,-4.28
2023-01-28T06:53:05.539Z,-4.31
2023-01-28T06:55:33.546Z,-4.32
2023-01-28T06:58:02.231Z,-4.28
2023-01-28T07:00:31.482Z,-4.22
2023-01-28T07:02:59.580Z,-4.17
2023-01-28T07:05:27.960Z,-4.21
2023-01-28T07:07:56.942Z,-4.25
2023-01-28T07:10:24.916Z,-4.28
2023-01-28T07:12:53.957Z,-4.33
2023-01-28T07:15:22.152Z,-4.32
2023-01-28T07:17:50.198Z,-4.29
2023-01-28T07:20:18.688Z,-4.28
2023-01-28T07:22:47.095Z,-4.22
2023-01-28T07:25:15.254Z,-4.19
2023-01-28T07:27:50.862Z,-4.21
2023-01-28T07:30:24.407Z,-4.18
2023-01-28T07:32:54.984Z,-4.12
2023-01-28T07:35:23.427Z,-4.07
2023-01-28T07:37:55.669Z,-4.02
2023-01-28T07:40:24.421Z,-3.93
2023-01-28T07:42:53.391Z,-3.99
2023-01-28T07:45:24.384Z,-4.03
2023-01-28T07:48:01.992Z,-4.02
2023-01-28T07:50:30.992Z,-3.95
2023-01-28T07:52:59.174Z,-3.86
2023-01-28T07:55:30.233Z,-3.80
2023-01-28T07:58:00.323Z,-3.77
2023-01-28T08:00:29.700Z,-3.78
2023-01-28T08:02:59.273Z,-3.77
2023-01-28T08:05:32.433Z,-3.77
2023-01-28T08:08:01.115Z,-3.75
2023-01-28T08:10:30.458Z,-3.71
2023-01-28T08:12:59.732Z,-3.72
2023-01-28T08:15:28.812Z,-3.72
2023-01-28T08:17:58.958Z,-3.72
2023-01-28T08:20:28.064Z,-3.72
2023-01-28T08:23:13.063Z,-3.71
2023-01-28T08:25:41.095Z,-3.65
2023-01-28T08:28:10.599Z,-3.61
2023-01-28T08:30:39.109Z,-3.62
2023-01-28T08:33:09.053Z,-3.66
2023-01-28T08:35:37.639Z,-3.64
2023-01-28T08:38:06.379Z,-3.59
2023-01-28T08:40:34.904Z,-3.54
2023-01-28T08:43:03.541Z,-3.49
2023-01-28T08:45:32.574Z,-3.50
2023-01-28T08:48:02.073Z,-3.46
2023-01-28T08:50:33.047Z,-3.43
2023-01-28T08:53:12.762Z,-3.39
2023-01-28T08:55:40.821Z,-3.37
2023-01-28T08:58:13.700Z,-3.36
2023-01-28T09:00:42.132Z,-3.31
2023-01-28T09:03:10.304Z,-3.26
2023-01-28T09:05:38.933Z,-3.20
2023-01-28T09:08:10.020Z,-3.18
2023-01-28T09:10:38.733Z,-3.16
2023-01-28T09:13:07.953Z,-3.12
2023-01-28T09:15:36.072Z,-3.10
2023-01-28T09:18:05.373Z,-3.07
2023-01-28T09:20:33.770Z,-3.03
2023-01-28T09:23:01.905Z,-2.96
2023-01-28T09:25:30.499Z,-2.90
2023-01-28T09:27:58.670Z,-2.87
2023-01-28T09:30:26.829Z,-2.81
2023-01-28T09:32:55.252Z,-2.76
2023-01-28T09:35:23.410Z,-2.71
2023-01-28T09:37:52.141Z,-2.68
2023-01-28T09:40:40.665Z,-2.57
2023-01-28T09:43:33.806Z,-2.54
2023-01-28T09:46:05.905Z,-2.46
2023-01-28T09:48:45.414Z,-2.44
2023-01-28T09:51:33.164Z,-2.49
2023-01-28T13:57:25.147Z,0.62
2023-01-28T14:00:26.111Z,0.56
2023-01-28T14:03:14.197Z,0.57
2023-01-28T14:06:18.717Z,0.58
2023-01-28T14:09:14.766Z,0.61
2023-01-28T14:11:58.068Z,0.63
2023-01-28T14:14:26.083Z,0.64
2023-01-28T14:17:04.067Z,0.65
2023-01-28T14:19:34.192Z,0.63
2023-01-28T14:22:09.371Z,0.58
2023-01-28T14:24:38.539Z,0.53
2023-01-28T14:27:37.641Z,0.51
2023-01-28T14:30:16.537Z,0.43
2023-01-28T14:32:49.240Z,0.40
2023-01-28T14:35:33.965Z,0.40
2023-01-28T14:38:08.016Z,0.41
2023-01-28T14:40:38.085Z,0.36
2023-01-28T14:43:08.703Z,0.35
2023-01-28T14:46:36.088Z,0.34
2023-01-28T14:49:19.280Z,0.31
2023-01-28T14:52:13.023Z,0.26
2023-01-28T14:54:54.414Z,0.24
2023-01-28T14:58:02.583Z,0.23
2023-01-28T15:00:34.453Z,0.22
2023-01-28T15:03:27.154Z,0.21
2023-01-28T15:06:12.201Z,0.18
2023-01-28T15:08:43.241Z,0.13
2023-01-28T15:11:13.790Z,0.08
2023-01-28T15:13:50.664Z,0.04
2023-01-28T15:16:24.499Z,-0.01
2023-01-28T15:18:56.591Z,-0.04
2023-01-28T15:21:30.447Z,-0.07
2023-01-28T15:24:00.446Z,-0.10
2023-01-28T15:26:33.256Z,-0.12
2023-01-28T15:29:01.632Z,-0.16
2023-01-28T15:31:34.998Z,-0.20
2023-01-28T15:34:04.375Z,-0.22
2023-01-28T15:36:33.018Z,-0.24
2023-01-28T15:39:01.575Z,-0.26
2023-01-28T15:41:39.521Z,-0.30
2023-01-28T15:44:39.251Z,-0.37
2023-01-28T15:47:32.567Z,-0.42
2023-01-28T15:50:04.851Z,-0.50
2023-01-28T15:52:38.387Z,-0.54
2023-01-28T15:55:07.736Z,-0.60
2023-01-28T15:57:35.799Z,-0.64
2023-01-28T16:00:14.236Z,-0.68
2023-01-28T16:02:52.406Z,-0.71
2023-01-28T16:05:32.002Z,-0.72
2023-01-28T16:08:02.446Z,-0.73
2023-01-28T16:10:31.551Z,-0.72
2023-01-28T16:13:26.568Z,-0.70
2023-01-28T16:15:56.802Z,-0.69
2023-01-28T16:18:41.613Z,-0.69
2023-01-28T16:21:12.844Z,-0.71
2023-01-28T16:23:40.963Z,-0.76
2023-01-28T16:26:26.115Z,-0.82
2023-01-28T16:29:20.853Z,-0.85
2023-01-28T16:31:48.967Z,-0.85
2023-01-28T16:34:17.228Z,-0.80
2023-01-28T16:36:45.475Z,-0.73
2023-01-28T16:39:14.203Z,-0.66
2023-01-28T16:41:44.084Z,-0.64
2023-01-28T16:44:13.929Z,-0.69
2023-01-28T16:46:42.634Z,-0.69
2023-01-28T16:49:15.326Z,-0.70
2023-01-28T16:51:44.168Z,-0.70
2023-01-28T16:54:13.844Z,-0.72
2023-01-28T16:56:46.444Z,-0.73
2023-01-28T16:59:16.160Z,-0.75
2023-01-28T17:01:45.843Z,-0.76
2023-01-28T17:04:13.989Z,-0.74
2023-01-28T17:06:43.287Z,-0.70
2023-01-28T17:09:12.883Z,-0.67
2023-01-28T17:11:41.839Z,-0.64
2023-01-28T17:14:11.239Z,-0.63
2023-01-28T17:16:40.144Z,-0.62
2023-01-28T17:19:08.276Z,-0.66
2023-01-28T17:21:37.815Z,-0.71
2023-01-28T17:24:06.545Z,-0.77
2023-01-28T17:26:36.547Z,-0.77
2023-01-28T17:29:05.646Z,-0.76
2023-01-28T17:31:36.432Z,-0.74
2023-01-28T17:34:08.187Z,-0.70
2023-01-28T17:36:36.452Z,-0.70
2023-01-28T17:39:06.894Z,-0.71
2023-01-28T17:41:36.372Z,-0.75
2023-01-28T17:44:04.663Z,-0.81
2023-01-28T17:46:32.932Z,-0.86
2023-01-28T17:49:02.048Z,-0.90
2023-01-28T17:51:31.075Z,-0.91
2023-01-28T17:53:59.211Z,-0.93
2023-01-28T17:56:29.912Z,-0.93
2023-01-28T21:59:39.827Z,-3.39
2023-01-28T22:02:32.077Z,-3.44
2023-01-28T22:05:07.196Z,-3.43
2023-01-28T22:07:40.766Z,-3.41
2023-01-28T22:10:10.755Z,-3.39
2023-01-28T22:12:41.003Z,-3.33
2023-01-28T22:15:10.112Z,-3.32
2023-01-28T22:17:38.427Z,-3.30
2023-01-28T22:20:07.455Z,-3.26
2023-01-28T22:22:36.541Z,-3.23
2023-01-28T22:25:08.186Z,-3.23
2023-01-28T22:27:36.371Z,-3.24
2023-01-28T22:30:06.262Z,-3.24
2023-01-28T22:32:34.860Z,-3.28
2023-01-28T22:35:04.810Z,-3.27
2023-01-28T22:37:35.052Z,-3.28
2023-01-28T22:40:03.203Z,-3.31
2023-01-28T22:42:34.787Z,-3.33
2023-01-28T22:45:03.863Z,-3.35
2023-01-28T22:47:32.055Z,-3.41
2023-01-28T22:50:00.703Z,-3.44
2023-01-28T22:52:28.984Z,-3.44
2023-01-28T22:54:57.152Z,-3.42
2023-01-28T22:57:25.152Z,-3.43
2023-01-28T23:00:00.029Z,-3.45
2023-01-28T23:02:29.114Z,-3.51
2023-01-28T23:04:57.252Z,-3.55
2023-01-28T23:07:25.905Z,-3.57
2023-01-28T23:09:53.966Z,-3.58
2023-01-28T23:12:23.115Z,-3.54
2023-01-28T23:15:10.208Z,-3.52
2023-01-28T23:17:57.194Z,-3.53
2023-01-28T23:20:44.536Z,-3.56
2023-01-28T23:23:35.403Z,-3.58
2023-01-28T23:26:04.653Z,-3.56
2023-01-28T23:28:34.049Z,-3.56
2023-01-28T23:31:02.063Z,-3.55
2023-01-28T23:33:31.753Z,-3.53
2023-01-28T23:36:00.178Z,-3.57
2023-01-28T23:38:28.778Z,-3.58
2023-01-28T23:40:57.042Z,-3.54
2023-01-28T23:43:24.967Z,-3.54
2023-01-28T23:45:53.092Z,-3.48
2023-01-28T23:48:21.186Z,-3.45
2023-01-28T23:50:54.577Z,-3.51
2023-01-28T23:53:23.576Z,-3.61
2023-01-28T23:55:51.558Z,-3.66
2023-01-28T23:58:33.537Z,-3.74
